createdAt,value
2017-07-19T00:00:42.044Z,19.80
2017-07-19T00:03:10.375Z,19.60
2017-07-19T00:05:38.719Z,19.70
2017-07-19T00:08:07.074Z,19.70
2017-07-19T00:10:35.431Z,19.70
2017-07-19T00:13:03.766Z,19.70
2017-07-19T00:15:32.280Z,19.60
2017-07-19T00:18:00.604Z,19.70
2017-07-19T00:20:28.951Z,19.60
2017-07-19T00:22:57.318Z,19.40
2017-07-19T00:25:25.645Z,19.30
2017-07-19T00:27:53.993Z,19.30
2017-07-19T00:30:22.337Z,19.20
2017-07-19T00:32:50.691Z,19.30
2017-07-19T00:35:19.028Z,19.10
2017-07-19T00:37:47.386Z,19.00
2017-07-19T00:40:15.734Z,19.00
2017-07-19T00:42:44.097Z,19.00
2017-07-19T00:45:12.454Z,18.90
2017-07-19T00:47:40.790Z,18.90
2017-07-19T00:50:09.152Z,18.90
2017-07-19T00:52:37.503Z,18.80
2017-07-19T00:55:05.862Z,18.90
2017-07-19T00:57:34.200Z,19.00
2017-07-19T01:00:06.076Z,18.80
2017-07-19T01:02:34.478Z,18.80
2017-07-19T01:05:02.843Z,18.80
2017-07-19T01:07:31.175Z,18.70
2017-07-19T01:09:59.577Z,18.60
2017-07-19T01:12:27.920Z,18.60
2017-07-19T01:14:56.264Z,18.50
2017-07-19T01:17:24.624Z,18.40
2017-07-19T01:19:52.975Z,18.60
2017-07-19T01:22:21.348Z,18.50
2017-07-19T01:24:49.715Z,18.50
2017-07-19T01:27:18.081Z,18.60
2017-07-19T01:29:46.411Z,18.60
2017-07-19T01:32:14.770Z,18.70
2017-07-19T01:34:43.108Z,18.60
2017-07-19T01:37:11.482Z,18.40
2017-07-19T01:39:39.823Z,18.20
2017-07-19T01:42:08.185Z,18.20
2017-07-19T01:44:50.188Z,18.30
2017-07-19T01:47:18.561Z,18.30
2017-07-19T01:49:46.906Z,18.10
2017-07-19T01:52:15.275Z,18.10
2017-07-19T01:54:43.614Z,18.20
2017-07-19T01:57:12.010Z,18.10
2017-07-19T01:59:40.387Z,18.00
2017-07-19T02:02:08.732Z,18.00
2017-07-19T02:04:37.099Z,18.00
2017-07-19T02:07:05.433Z,18.00
2017-07-19T02:09:33.786Z,18.10
2017-07-19T02:12:02.162Z,18.00
2017-07-19T02:14:30.512Z,18.10
2017-07-19T02:16:58.847Z,18.00
2017-07-19T02:19:27.212Z,18.00
2017-07-19T02:21:55.621Z,18.20
2017-07-19T02:24:23.962Z,18.00
2017-07-19T02:26:52.312Z,18.00
2017-07-19T02:29:20.642Z,17.90
2017-07-19T02:31:49.002Z,17.80
2017-07-19T02:34:17.340Z,17.70
2017-07-19T02:36:51.941Z,17.60
2017-07-19T02:39:20.279Z,17.70
2017-07-19T02:41:48.628Z,17.80
2017-07-19T02:44:16.955Z,17.50
2017-07-19T02:46:45.310Z,17.80
2017-07-19T02:49:13.628Z,17.70
2017-07-19T02:51:41.952Z,17.60
2017-07-19T02:54:10.297Z,17.70
2017-07-19T02:56:38.652Z,17.80
2017-07-19T02:59:07.001Z,17.80
2017-07-19T03:01:35.331Z,17.50
2017-07-19T03:04:03.671Z,17.50
2017-07-19T03:06:52.681Z,17.40
2017-07-19T03:09:21.036Z,17.20
2017-07-19T03:11:49.376Z,17.20
2017-07-19T03:14:17.717Z,17.20
2017-07-19T03:16:46.175Z,17.20
2017-07-19T03:19:14.528Z,17.10
2017-07-19T03:21:42.861Z,17.20
2017-07-19T03:24:11.201Z,17.10
2017-07-19T03:29:39.000Z,17.20
2017-07-19T03:32:07.350Z,17.20
2017-07-19T03:34:35.676Z,17.20
2017-07-19T03:37:04.030Z,17.40
2017-07-19T03:39:32.365Z,17.30
2017-07-19T03:42:00.710Z,17.30
2017-07-19T03:44:29.037Z,17.20
2017-07-19T03:46:57.389Z,17.20
2017-07-19T03:49:25.714Z,17.20
2017-07-19T03:51:54.066Z,17.20
2017-07-19T03:54:22.392Z,17.10
2017-07-19T03:56:50.737Z,17.10
2017-07-19T03:59:19.068Z,17.00
2017-07-19T04:01:47.731Z,17.10
2017-07-19T04:04:16.098Z,17.10
2017-07-19T04:06:44.424Z,17.00
2017-07-19T04:09:12.782Z,17.00
2017-07-19T04:11:41.176Z,17.00
2017-07-19T04:14:09.546Z,17.00
2017-07-19T04:16:37.890Z,16.90
2017-07-19T04:19:06.248Z,16.80
2017-07-19T04:21:34.578Z,16.80
2017-07-19T04:24:02.932Z,16.80
2017-07-19T04:26:31.307Z,16.80
2017-07-19T04:28:59.668Z,16.40
2017-07-19T04:31:28.058Z,16.40
2017-07-19T04:33:56.394Z,16.50
2017-07-19T04:36:24.763Z,16.60
2017-07-19T04:38:53.190Z,16.70
2017-07-19T04:41:21.589Z,16.70
2017-07-19T04:43:49.908Z,16.90
2017-07-19T04:46:18.270Z,17.00
2017-07-19T04:48:46.597Z,17.10
2017-07-19T04:51:14.949Z,17.20
2017-07-19T04:53:43.333Z,17.30
2017-07-19T04:56:11.707Z,17.30
2017-07-19T04:58:40.025Z,17.30
2017-07-19T05:01:08.350Z,17.50
2017-07-19T05:03:36.703Z,17.50
2017-07-19T05:06:05.024Z,17.40
2017-07-19T05:08:33.538Z,17.40
2017-07-19T05:11:01.862Z,17.50
2017-07-19T05:13:30.210Z,17.60
2017-07-19T05:15:58.530Z,17.60
2017-07-19T05:18:26.883Z,17.70
2017-07-19T05:20:55.214Z,17.70
2017-07-19T05:23:23.590Z,17.80
2017-07-19T05:25:51.913Z,18.00
2017-07-19T05:28:20.233Z,18.20
2017-07-19T05:30:48.584Z,18.30
2017-07-19T05:33:16.922Z,18.50
2017-07-19T05:35:45.293Z,18.50
2017-07-19T05:38:14.882Z,18.50
2017-07-19T05:40:43.228Z,18.90
2017-07-19T05:43:11.580Z,19.20
2017-07-19T05:45:39.929Z,19.30
2017-07-19T05:48:08.256Z,19.40
2017-07-19T05:50:36.622Z,19.60
2017-07-19T05:53:05.293Z,19.90
2017-07-19T05:55:33.621Z,20.30
2017-07-19T05:58:01.976Z,20.20
2017-07-19T06:00:30.294Z,20.50
2017-07-19T06:02:58.654Z,20.70
2017-07-19T06:05:27.137Z,20.80
2017-07-19T06:07:55.480Z,21.00
2017-07-19T06:10:23.874Z,21.40
2017-07-19T06:12:52.241Z,21.60
2017-07-19T06:15:20.569Z,21.80
2017-07-19T06:17:49.022Z,21.90
2017-07-19T06:20:17.378Z,21.80
2017-07-19T06:22:45.711Z,22.20
2017-07-19T06:25:14.074Z,22.30
2017-07-19T06:27:42.406Z,22.70
2017-07-19T06:30:10.748Z,22.90
2017-07-19T06:32:39.083Z,23.20
2017-07-19T06:35:07.436Z,23.40
2017-07-19T06:37:35.761Z,23.60
2017-07-19T06:40:04.119Z,23.60
2017-07-19T06:42:32.441Z,23.50
2017-07-19T06:45:00.771Z,23.40
2017-07-19T06:47:29.131Z,23.60
2017-07-19T06:49:57.469Z,24.20
2017-07-19T06:52:25.835Z,23.70
2017-07-19T06:54:54.178Z,23.90
2017-07-19T06:57:22.514Z,24.30
2017-07-19T06:59:50.848Z,24.60
2017-07-19T07:02:19.207Z,24.70
2017-07-19T07:04:47.534Z,24.70
2017-07-19T07:07:15.874Z,24.60
2017-07-19T07:09:44.207Z,24.70
2017-07-19T07:12:12.532Z,25.00
2017-07-19T07:14:40.891Z,25.50
2017-07-19T07:17:09.218Z,24.90
2017-07-19T07:19:37.561Z,25.60
2017-07-19T07:22:05.882Z,26.00
2017-07-19T07:24:34.224Z,25.10
2017-07-19T07:27:02.611Z,25.50
2017-07-19T07:29:30.965Z,25.90
2017-07-19T07:31:59.276Z,26.20
2017-07-19T07:34:27.624Z,26.30
2017-07-19T07:36:55.960Z,26.50
2017-07-19T07:39:24.329Z,26.70
2017-07-19T07:41:52.673Z,27.00
2017-07-19T07:44:21.000Z,27.40
2017-07-19T07:46:49.373Z,27.30
2017-07-19T07:49:17.700Z,27.40
2017-07-19T07:51:46.053Z,27.40
2017-07-19T07:54:14.383Z,27.30
2017-07-19T07:56:42.724Z,27.10
2017-07-19T07:59:11.042Z,27.10
2017-07-19T08:01:39.407Z,27.20
2017-07-19T08:04:07.724Z,26.40
2017-07-19T08:06:36.037Z,27.40
2017-07-19T08:09:04.369Z,27.30
2017-07-19T08:11:32.701Z,27.40
2017-07-19T08:14:01.056Z,27.90
2017-07-19T08:16:29.379Z,28.00
2017-07-19T08:21:25.178Z,28.20
2017-07-19T08:23:53.522Z,28.20
2017-07-19T08:26:21.863Z,28.30
2017-07-19T08:28:50.210Z,29.00
2017-07-19T08:31:18.548Z,29.10
2017-07-19T08:33:46.873Z,29.50
2017-07-19T08:36:15.219Z,29.50
2017-07-19T08:38:43.586Z,29.70
2017-07-19T08:41:11.920Z,30.10
2017-07-19T08:43:40.253Z,30.20
2017-07-19T08:46:08.594Z,30.00
2017-07-19T08:48:36.905Z,29.60
2017-07-19T08:51:05.239Z,29.60
2017-07-19T08:53:33.556Z,28.70
2017-07-19T08:56:01.904Z,29.70
2017-07-19T08:58:30.229Z,30.50
2017-07-19T09:00:59.482Z,31.00
2017-07-19T09:03:27.809Z,29.50
2017-07-19T09:05:56.134Z,30.00
2017-07-19T09:08:24.594Z,29.20
2017-07-19T09:10:52.916Z,29.80
2017-07-19T09:13:21.258Z,29.90
2017-07-19T09:15:49.582Z,30.30
2017-07-19T09:18:17.925Z,30.90
2017-07-19T09:20:46.244Z,30.90
2017-07-19T09:23:14.719Z,31.40
2017-07-19T09:25:43.026Z,31.80
2017-07-19T09:28:11.367Z,32.10
2017-07-19T09:30:39.715Z,31.60
2017-07-19T09:33:08.023Z,31.60
2017-07-19T09:35:36.353Z,31.30
2017-07-19T09:38:04.756Z,31.80
2017-07-19T09:40:33.119Z,32.30
2017-07-19T09:43:01.499Z,32.30
2017-07-19T09:45:29.836Z,32.60
2017-07-19T09:47:58.146Z,31.80
2017-07-19T09:50:26.479Z,31.40
2017-07-19T09:52:54.906Z,31.80
2017-07-19T09:55:23.236Z,32.40
2017-07-19T09:57:51.605Z,32.80
2017-07-19T10:00:19.936Z,32.90
2017-07-19T10:02:48.288Z,33.20
2017-07-19T10:05:16.629Z,33.60
2017-07-19T10:13:45.089Z,33.10
2017-07-19T10:16:13.434Z,33.30
2017-07-19T10:18:41.744Z,33.50
2017-07-19T10:21:10.065Z,33.80
2017-07-19T10:23:38.413Z,34.00
2017-07-19T10:26:06.717Z,33.80
2017-07-19T10:28:35.092Z,34.10
2017-07-19T10:31:03.441Z,34.10
2017-07-19T10:33:31.770Z,34.10
2017-07-19T10:36:00.093Z,34.50
2017-07-19T10:38:28.441Z,34.50
2017-07-19T10:40:56.753Z,34.00
2017-07-19T10:43:25.104Z,33.80
2017-07-19T10:45:53.475Z,34.40
2017-07-19T10:48:21.807Z,34.80
2017-07-19T10:50:50.136Z,34.80
2017-07-19T10:53:18.453Z,34.90
2017-07-19T10:55:46.795Z,35.00
2017-07-19T10:58:15.118Z,32.80
2017-07-19T11:00:43.521Z,32.40
2017-07-19T11:03:11.854Z,32.60
2017-07-19T11:05:40.193Z,32.90
2017-07-19T11:08:08.502Z,33.70
2017-07-19T11:10:36.894Z,34.50
2017-07-19T11:13:05.523Z,34.10
2017-07-19T11:15:34.714Z,33.40
2017-07-19T11:18:03.046Z,33.30
2017-07-19T11:20:31.406Z,33.50
2017-07-19T11:22:59.738Z,33.40
2017-07-19T11:25:28.060Z,34.10
2017-07-19T11:27:56.399Z,34.50
2017-07-19T11:30:24.712Z,34.70
2017-07-19T11:32:53.056Z,34.90
2017-07-19T11:35:21.378Z,35.10
2017-07-19T11:37:49.729Z,33.60
2017-07-19T11:40:18.041Z,33.60
2017-07-19T11:42:46.393Z,33.80
2017-07-19T11:45:14.714Z,34.50
2017-07-19T11:47:43.053Z,34.90
2017-07-19T11:50:11.377Z,35.00
2017-07-19T11:52:39.726Z,34.60
2017-07-19T11:55:08.041Z,34.90
2017-07-19T11:57:36.358Z,35.10
2017-07-19T12:00:04.734Z,35.30
2017-07-19T12:02:33.102Z,35.60
2017-07-19T12:05:01.455Z,35.50
2017-07-19T12:07:29.802Z,35.30
2017-07-19T12:09:58.153Z,35.20
2017-07-19T12:12:26.502Z,34.90
2017-07-19T12:14:54.933Z,34.90
2017-07-19T12:17:23.280Z,35.00
2017-07-19T12:19:51.676Z,35.40
2017-07-19T12:22:20.030Z,35.40
2017-07-19T12:24:48.392Z,35.50
2017-07-19T12:29:45.099Z,35.60
2017-07-19T12:32:13.498Z,35.40
2017-07-19T12:34:41.901Z,35.50
2017-07-19T12:37:10.351Z,35.30
2017-07-19T12:39:38.916Z,35.30
2017-07-19T12:42:07.487Z,35.30
2017-07-19T12:44:35.916Z,35.50
2017-07-19T12:47:04.341Z,35.60
2017-07-19T12:49:32.841Z,34.00
2017-07-19T12:52:01.279Z,34.80
2017-07-19T12:54:29.656Z,35.50
2017-07-19T12:56:58.085Z,35.80
2017-07-19T12:59:26.521Z,35.90
2017-07-19T13:01:54.909Z,34.90
2017-07-19T13:04:23.336Z,35.30
2017-07-19T13:06:51.752Z,35.60
2017-07-19T13:09:20.182Z,35.50
2017-07-19T13:11:48.605Z,35.60
2017-07-19T13:14:16.977Z,35.70
2017-07-19T13:16:45.393Z,35.40
2017-07-19T13:19:13.817Z,35.70
2017-07-19T13:21:42.196Z,35.50
2017-07-19T13:24:10.598Z,35.50
2017-07-19T13:26:39.017Z,34.90
2017-07-19T13:29:07.389Z,35.40
2017-07-19T13:31:35.813Z,35.50
2017-07-19T13:34:04.200Z,34.30
2017-07-19T13:36:32.641Z,35.00
2017-07-19T13:39:01.020Z,35.20
2017-07-19T13:41:29.472Z,35.60
2017-07-19T13:43:57.902Z,35.90
2017-07-19T13:46:26.334Z,35.90
2017-07-19T13:48:54.806Z,36.10
2017-07-19T13:51:23.274Z,36.00
2017-07-19T13:53:51.641Z,35.00
2017-07-19T13:56:20.061Z,35.30
2017-07-19T13:58:48.482Z,35.30
2017-07-19T14:01:16.877Z,35.60
2017-07-19T14:03:45.385Z,35.80
2017-07-19T14:06:13.996Z,35.60
2017-07-19T14:08:42.400Z,35.80
2017-07-19T14:11:11.191Z,35.80
2017-07-19T14:13:39.667Z,35.20
2017-07-19T14:16:08.092Z,35.10
2017-07-19T14:18:36.511Z,35.60
2017-07-19T14:21:04.920Z,35.90
2017-07-19T14:23:33.363Z,36.00
2017-07-19T14:26:01.773Z,35.80
2017-07-19T14:28:30.198Z,35.10
2017-07-19T14:30:58.595Z,35.00
2017-07-19T14:33:27.014Z,35.30
2017-07-19T14:35:55.429Z,35.50
2017-07-19T14:38:23.831Z,35.70
2017-07-19T14:40:52.507Z,35.90
2017-07-19T14:43:21.873Z,35.60
2017-07-19T14:45:50.340Z,35.70
2017-07-19T14:48:18.794Z,35.80
2017-07-19T14:50:47.257Z,36.00
2017-07-19T14:53:15.632Z,35.80
2017-07-19T14:55:44.126Z,35.70
2017-07-19T14:58:12.556Z,35.50
2017-07-19T15:00:40.958Z,35.50
2017-07-19T15:03:09.387Z,35.50
2017-07-19T15:05:37.848Z,35.30
2017-07-19T15:08:06.237Z,34.90
2017-07-19T15:10:34.700Z,35.20
2017-07-19T15:13:03.146Z,35.20
2017-07-19T15:15:31.530Z,35.00
2017-07-19T15:18:00.030Z,35.10
2017-07-19T15:20:28.410Z,35.30
2017-07-19T15:22:56.859Z,35.30
2017-07-19T15:25:25.278Z,35.20
2017-07-19T15:27:53.678Z,35.30
2017-07-19T15:30:22.070Z,35.40
2017-07-19T15:32:50.505Z,35.60
2017-07-19T15:35:18.932Z,35.40
2017-07-19T15:37:47.400Z,35.40
2017-07-19T15:40:15.827Z,35.20
2017-07-19T15:42:44.323Z,35.00
2017-07-19T15:45:12.708Z,35.00
2017-07-19T15:47:41.103Z,34.90
2017-07-19T15:50:09.827Z,35.00
2017-07-19T15:52:38.239Z,35.10
2017-07-19T15:55:06.666Z,35.20
2017-07-19T15:57:38.743Z,35.10
2017-07-19T16:00:07.200Z,35.10
2017-07-19T16:02:35.678Z,34.70
2017-07-19T16:05:04.089Z,34.90
2017-07-19T16:07:32.459Z,34.90
2017-07-19T16:10:00.923Z,34.90
2017-07-19T16:12:29.317Z,34.80
2017-07-19T16:14:57.762Z,34.80
2017-07-19T16:17:26.261Z,34.60
2017-07-19T16:19:54.669Z,34.80
2017-07-19T16:22:23.133Z,34.70
2017-07-19T16:24:51.514Z,34.50
2017-07-19T16:27:19.967Z,34.50
2017-07-19T16:29:48.375Z,34.70
2017-07-19T16:32:16.800Z,34.70
2017-07-19T16:34:45.259Z,34.50
2017-07-19T16:37:13.707Z,34.60
2017-07-19T16:39:42.082Z,34.40
2017-07-19T16:42:10.506Z,34.30
2017-07-19T16:44:39.834Z,34.20
2017-07-19T16:47:20.858Z,34.30
2017-07-19T16:49:49.279Z,34.10
2017-07-19T16:52:17.694Z,34.30
2017-07-19T16:54:46.166Z,34.20
2017-07-19T16:57:14.590Z,34.30
2017-07-19T16:59:43.066Z,34.30
2017-07-19T17:02:11.530Z,34.30
2017-07-19T17:04:39.959Z,34.40
2017-07-19T17:07:08.374Z,34.30
2017-07-19T17:09:36.781Z,34.10
2017-07-19T17:12:05.162Z,34.10
2017-07-19T17:14:33.666Z,34.00
2017-07-19T17:17:02.128Z,34.10
2017-07-19T17:19:30.634Z,34.00
2017-07-19T17:21:59.115Z,34.00
2017-07-19T17:24:27.628Z,33.90
2017-07-19T17:26:56.113Z,34.00
2017-07-19T17:29:24.564Z,33.80
2017-07-19T17:31:53.051Z,33.60
2017-07-19T17:34:21.528Z,33.20
2017-07-19T17:36:49.952Z,33.00
2017-07-19T17:39:18.370Z,33.20
2017-07-19T17:41:46.839Z,33.00
2017-07-19T17:44:15.267Z,33.10
2017-07-19T17:46:43.690Z,32.80
2017-07-19T17:49:12.024Z,32.90
2017-07-19T17:51:40.385Z,32.80
2017-07-19T17:54:08.725Z,32.20
2017-07-19T17:56:37.094Z,31.50
2017-07-19T17:59:12.406Z,31.30
2017-07-19T18:01:40.792Z,31.20
2017-07-19T18:04:09.141Z,31.10
2017-07-19T18:06:37.491Z,31.10
2017-07-19T18:09:05.829Z,31.00
2017-07-19T18:11:34.371Z,30.60
2017-07-19T18:14:02.729Z,30.30
2017-07-19T18:16:31.153Z,30.20
2017-07-19T18:18:59.508Z,29.80
2017-07-19T18:21:27.858Z,29.10
2017-07-19T18:23:56.254Z,28.40
2017-07-19T18:26:24.589Z,27.90
2017-07-19T18:28:52.954Z,27.20
2017-07-19T18:31:21.380Z,26.60
2017-07-19T18:33:49.724Z,26.40
2017-07-19T18:36:21.341Z,26.20
2017-07-19T18:38:49.676Z,26.00
2017-07-19T18:41:18.063Z,25.80
2017-07-19T18:43:46.400Z,26.00
2017-07-19T18:46:14.750Z,23.70
2017-07-19T18:48:43.111Z,23.70
2017-07-19T18:51:11.464Z,24.70
2017-07-19T18:53:39.789Z,25.10
2017-07-19T18:56:08.156Z,25.10
2017-07-19T18:58:36.488Z,23.70
2017-07-19T19:01:04.845Z,24.60
2017-07-19T19:03:33.167Z,25.00
2017-07-19T19:06:01.503Z,25.00
2017-07-19T19:08:29.836Z,25.00
2017-07-19T19:10:58.188Z,25.10
2017-07-19T19:13:26.508Z,25.20
2017-07-19T19:15:54.827Z,25.20
2017-07-19T19:18:23.176Z,25.00
2017-07-19T19:20:51.504Z,24.80
2017-07-19T19:23:19.856Z,24.70
2017-07-19T19:25:48.204Z,24.80
2017-07-19T19:28:16.558Z,24.60
2017-07-19T19:30:45.200Z,24.50
2017-07-19T19:33:13.556Z,24.50
2017-07-19T19:35:41.871Z,24.40
2017-07-19T19:38:10.219Z,24.40
2017-07-19T19:40:38.542Z,24.40
2017-07-19T19:43:07.606Z,24.20
2017-07-19T19:45:35.929Z,24.30
2017-07-19T19:48:04.292Z,24.30
2017-07-19T19:50:32.633Z,24.10
2017-07-19T19:53:00.954Z,24.00
2017-07-19T19:55:29.293Z,24.00
2017-07-19T19:57:57.610Z,24.00
2017-07-19T20:00:25.956Z,24.10
2017-07-19T20:02:54.272Z,24.10
2017-07-19T20:05:22.631Z,24.00
2017-07-19T20:07:50.946Z,24.00
2017-07-19T20:10:19.277Z,24.10
2017-07-19T20:12:47.601Z,24.00
2017-07-19T20:15:15.949Z,23.80
2017-07-19T20:17:44.270Z,23.70
2017-07-19T20:20:12.635Z,23.70
2017-07-19T20:22:40.967Z,23.70
2017-07-19T20:25:10.285Z,23.70
2017-07-19T20:27:38.625Z,23.40
2017-07-19T20:30:06.951Z,23.20
2017-07-19T20:35:35.758Z,23.30
2017-07-19T20:38:04.214Z,23.30
2017-07-19T20:40:32.555Z,23.10
2017-07-19T20:43:00.969Z,23.10
2017-07-19T20:45:29.293Z,23.20
2017-07-19T20:47:57.634Z,23.10
2017-07-19T20:50:25.960Z,23.20
2017-07-19T20:52:54.390Z,23.20
2017-07-19T20:55:22.704Z,23.00
2017-07-19T20:57:51.994Z,23.00
2017-07-19T21:00:20.333Z,22.90
2017-07-19T21:02:48.662Z,22.90
2017-07-19T21:05:17.038Z,22.90
2017-07-19T21:07:45.378Z,22.90
2017-07-19T21:10:17.533Z,22.90
2017-07-19T21:12:45.903Z,22.80
2017-07-19T21:15:14.289Z,22.80
2017-07-19T21:17:42.642Z,22.70
2017-07-19T21:20:11.036Z,22.60
2017-07-19T21:22:39.416Z,22.40
2017-07-19T21:25:07.831Z,22.40
2017-07-19T21:27:36.183Z,22.30
2017-07-19T21:30:04.552Z,22.40
2017-07-19T21:32:32.948Z,22.50
2017-07-19T21:35:01.310Z,22.50
2017-07-19T21:37:29.687Z,22.10
2017-07-19T21:39:58.062Z,21.40
2017-07-19T21:42:26.461Z,20.80
2017-07-19T21:44:54.827Z,21.10
2017-07-19T21:47:23.211Z,21.40
2017-07-19T21:49:51.581Z,21.60
2017-07-19T21:52:19.979Z,21.70
2017-07-19T21:54:48.355Z,21.70
2017-07-19T21:57:16.717Z,21.40
2017-07-19T21:59:45.106Z,21.30
2017-07-19T22:02:24.302Z,21.30
2017-07-19T22:04:52.688Z,21.50
2017-07-19T22:07:21.045Z,21.60
2017-07-19T22:09:49.436Z,21.70
2017-07-19T22:12:17.802Z,21.40
2017-07-19T22:14:46.189Z,21.30
2017-07-19T22:17:14.544Z,21.40
2017-07-19T22:19:42.995Z,21.50
2017-07-19T22:22:11.369Z,21.60
2017-07-19T22:24:39.760Z,21.80
2017-07-19T22:27:08.140Z,21.80
2017-07-19T22:29:36.510Z,21.80
2017-07-19T22:32:04.904Z,21.90
2017-07-19T22:34:37.902Z,21.80
2017-07-19T22:37:06.297Z,21.90
2017-07-19T22:39:34.674Z,21.90
2017-07-19T22:42:03.060Z,21.90
2017-07-19T22:44:31.570Z,21.80
2017-07-19T22:46:59.974Z,21.70
2017-07-19T22:49:28.332Z,21.70
2017-07-19T22:51:56.734Z,21.70
2017-07-19T22:54:25.090Z,21.60
2017-07-19T22:56:53.454Z,21.60
2017-07-19T22:59:22.822Z,21.60
2017-07-19T23:01:51.192Z,21.60
2017-07-19T23:04:19.575Z,21.60
2017-07-19T23:06:47.941Z,21.50
2017-07-19T23:09:16.336Z,21.50
2017-07-19T23:11:44.719Z,21.60
2017-07-19T23:14:13.370Z,21.60
2017-07-19T23:16:52.783Z,21.60
2017-07-19T23:19:21.153Z,21.60
2017-07-19T23:21:49.540Z,21.60
2017-07-19T23:24:17.947Z,21.60
2017-07-19T23:26:46.317Z,21.60
2017-07-19T23:29:14.717Z,21.60
2017-07-19T23:31:43.090Z,21.70
2017-07-19T23:34:11.463Z,21.70
2017-07-19T23:36:39.853Z,21.80
2017-07-19T23:39:08.231Z,21.80
2017-07-19T23:41:36.636Z,21.70
2017-07-19T23:44:04.996Z,21.60
2017-07-19T23:46:33.380Z,21.60
2017-07-19T23:49:01.752Z,21.60
2017-07-19T23:51:30.158Z,21.60
2017-07-19T23:53:58.522Z,21.50
2017-07-19T23:56:26.899Z,21.50
2017-07-19T23:58:55.280Z,21.50
